sensor_id;sensor_type;location;lat;lon;timestamp;pressure;altitude;pressure_sealevel;temperature;humidity
48352;BME280;34163;49.314;6.752;2023-09-18T07:56:23;98952.25;;;7.73;100.00
48352;BME280;34163;49.314;6.752;2023-09-18T07:58:48;98962.47;;;7.81;100.00
48352;BME280;34163;49.314;6.752;2023-09-18T08:01:13;98969.72;;;7.76;100.00
48352;BME280;34163;49.314;6.752;2023-09-18T08:03:41;98967.81;;;7.79;100.00
48352;BME280;34163;49.314;6.752;2023-09-18T08:06:06;98969.25;;;7.87;100.00
48352;BME280;34163;49.314;6.752;2023-09-18T08:08:31;98989.53;;;7.85;100.00
48352;BME280;34163;49.314;6.752;2023-09-18T08:10:58;98991.00;;;7.92;100.00
48352;BME280;34163;49.314;6.752;2023-09-18T08:13:23;98983.09;;;7.92;100.00
48352;BME280;34163;49.314;6.752;2023-09-18T08:15:49;98982.97;;;7.95;100.00
48352;BME280;34163;49.314;6.752;2023-09-18T08:18:14;98974.91;;;7.98;100.00
48352;BME280;34163;49.314;6.752;2023-09-18T08:20:40;98987.88;;;8.03;100.00
48352;BME280;34163;49.314;6.752;2023-09-18T08:23:05;98985.19;;;8.04;100.00
48352;BME280;34163;49.314;6.752;2023-09-18T08:25:31;98993.00;;;8.06;100.00
48352;BME280;34163;49.314;6.752;2023-09-18T08:27:56;98982.44;;;8.06;100.00
48352;BME280;34163;49.314;6.752;2023-09-18T08:30:22;98992.66;;;8.13;100.00
48352;BME280;34163;49.314;6.752;2023-09-18T08:32:47;98983.25;;;8.08;100.00
48352;BME280;34163;49.314;6.752;2023-09-18T08:35:13;99001.53;;;8.12;100.00
48352;BME280;34163;49.314;6.752;2023-09-18T08:37:41;98997.16;;;8.11;100.00
48352;BME280;34163;49.314;6.752;2023-09-18T08:40:07;98997.81;;;8.16;100.00
48352;BME280;34163;49.314;6.752;2023-09-18T08:42:38;98995.22;;;8.15;100.00
48352;BME280;34163;49.314;6.752;2023-09-18T08:45:05;98988.19;;;8.15;100.00
48352;BME280;34163;49.314;6.752;2023-09-18T08:47:32;98990.63;;;8.20;100.00
48352;BME280;34163;49.314;6.752;2023-09-18T08:49:58;98975.78;;;8.17;100.00
48352;BME280;34163;49.314;6.752;2023-09-18T08:52:23;98965.22;;;8.17;100.00
48352;BME280;34163;49.314;6.752;2023-09-18T08:54:50;98971.19;;;8.21;100.00
48352;BME280;34163;49.314;6.752;2023-09-18T08:57:16;98984.19;;;8.26;100.00
48352;BME280;34163;49.314;6.752;2023-09-18T08:59:41;98985.91;;;8.27;100.00
48352;BME280;34163;49.314;6.752;2023-09-18T09:02:08;98985.78;;;8.30;100.00
48352;BME280;34163;49.314;6.752;2023-09-18T09:04:36;98982.19;;;8.31;100.00
48352;BME280;34163;49.314;6.752;2023-09-18T09:07:02;98976.91;;;8.31;100.00
48352;BME280;34163;49.314;6.752;2023-09-18T09:09:27;98990.97;;;8.31;100.00
48352;BME280;34163;49.314;6.752;2023-09-18T09:11:53;98990.91;;;8.33;100.00
48352;BME280;34163;49.314;6.752;2023-09-18T09:14:18;98992.75;;;8.31;100.00
48352;BME280;34163;49.314;6.752;2023-09-18T09:16:49;98997.94;;;8.32;100.00
48352;BME280;34163;49.314;6.752;2023-09-18T09:19:16;98995.00;;;8.00;100.00
48352;BME280;34163;49.314;6.752;2023-09-18T09:21:42;99005.94;;;7.52;100.00
48352;BME280;34163;49.314;6.752;2023-09-18T09:24:09;99003.69;;;7.42;100.00
48352;BME280;34163;49.314;6.752;2023-09-18T09:26:39;99002.41;;;7.31;100.00
48352;BME280;34163;49.314;6.752;2023-09-18T09:29:17;98997.47;;;7.23;100.00
48352;BME280;34163;49.314;6.752;2023-09-18T09:31:43;98989.69;;;7.20;100.00
48352;BME280;34163;49.314;6.752;2023-09-18T09:34:09;98993.91;;;7.44;100.00
48352;BME280;34163;49.314;6.752;2023-09-18T09:36:34;98997.53;;;7.62;100.00
48352;BME280;34163;49.314;6.752;2023-09-18T09:38:59;98999.50;;;7.78;100.00
48352;BME280;34163;49.314;6.752;2023-09-18T09:41:25;99004.59;;;7.62;100.00
48352;BME280;34163;49.314;6.752;2023-09-18T09:43:52;99012.38;;;7.44;100.00
48352;BME280;34163;49.314;6.752;2023-09-18T09:46:19;99014.06;;;7.25;100.00
48352;BME280;34163;49.314;6.752;2023-09-18T09:49:00;99006.88;;;7.28;100.00
48352;BME280;34163;49.314;6.752;2023-09-18T09:51:26;99011.69;;;7.19;100.00
48352;BME280;34163;49.314;6.752;2023-09-18T09:53:51;99007.38;;;7.16;100.00
48352;BME280;34163;49.314;6.752;2023-09-18T09:56:18;99000.81;;;7.06;100.00
48352;BME280;34163;49.314;6.752;2023-09-18T09:59:02;98993.94;;;7.02;100.00
48352;BME280;34163;49.314;6.752;2023-09-18T10:01:30;99010.38;;;7.08;100.00
48352;BME280;34163;49.314;6.752;2023-09-18T10:03:55;99011.47;;;7.03;100.00
48352;BME280;34163;49.314;6.752;2023-09-18T10:06:21;99005.47;;;6.99;100.00
48352;BME280;34163;49.314;6.752;2023-09-18T10:08:46;99005.59;;;6.96;100.00
48352;BME280;34163;49.314;6.752;2023-09-18T10:11:13;99007.44;;;6.94;100.00
48352;BME280;34163;49.314;6.752;2023-09-18T10:17:04;98999.34;;;6.77;100.00
48352;BME280;34163;49.314;6.752;2023-09-18T10:19:33;98992.84;;;6.85;100.00
48352;BME280;34163;49.314;6.752;2023-09-18T10:24:33;98991.44;;;6.77;100.00
48352;BME280;34163;49.314;6.752;2023-09-18T10:27:00;98990.28;;;6.84;100.00
48352;BME280;34163;49.314;6.752;2023-09-18T10:29:28;98985.13;;;6.81;100.00
48352;BME280;34163;49.314;6.752;2023-09-18T10:31:54;98979.97;;;6.78;100.00
48352;BME280;34163;49.314;6.752;2023-09-18T10:34:20;98978.41;;;6.73;100.00
48352;BME280;34163;49.314;6.752;2023-09-18T10:36:49;98970.69;;;6.69;100.00
48352;BME280;34163;49.314;6.752;2023-09-18T10:39:15;98960.03;;;6.72;100.00
48352;BME280;34163;49.314;6.752;2023-09-18T10:41:46;98964.31;;;6.75;100.00
48352;BME280;34163;49.314;6.752;2023-09-18T10:44:12;98960.16;;;6.69;100.00
48352;BME280;34163;49.314;6.752;2023-09-18T10:46:38;98962.56;;;6.75;100.00
48352;BME280;34163;49.314;6.752;2023-09-18T10:49:04;98967.13;;;6.70;100.00
48352;BME280;34163;49.314;6.752;2023-09-18T10:51:29;98965.19;;;6.75;100.00
48352;BME280;34163;49.314;6.752;2023-09-18T10:53:56;98969.25;;;7.04;100.00
48352;BME280;34163;49.314;6.752;2023-09-18T10:56:21;98965.31;;;7.35;100.00
48352;BME280;34163;49.314;6.752;2023-09-18T10:58:48;98968.91;;;7.55;100.00
48352;BME280;34163;49.314;6.752;2023-09-18T11:01:20;98977.06;;;7.49;100.00
48352;BME280;34163;49.314;6.752;2023-09-18T11:03:48;98971.84;;;7.26;100.00
48352;BME280;34163;49.314;6.752;2023-09-18T11:06:15;98977.03;;;7.07;100.00
48352;BME280;34163;49.314;6.752;2023-09-18T11:08:43;98971.13;;;7.23;100.00
48352;BME280;34163;49.314;6.752;2023-09-18T11:11:10;98966.13;;;7.58;100.00
48352;BME280;34163;49.314;6.752;2023-09-18T11:13:39;98965.16;;;7.79;100.00
48352;BME280;34163;49.314;6.752;2023-09-18T11:21:29;98951.63;;;7.27;100.00
48352;BME280;34163;49.314;6.752;2023-09-18T11:26:23;98959.13;;;7.36;100.00
48352;BME280;34163;49.314;6.752;2023-09-18T11:28:49;98956.81;;;7.70;100.00
48352;BME280;34163;49.314;6.752;2023-09-18T11:31:15;98953.19;;;7.72;100.00
48352;BME280;34163;49.314;6.752;2023-09-18T11:33:41;98952.59;;;7.66;100.00
48352;BME280;34163;49.314;6.752;2023-09-18T11:36:15;98948.47;;;7.39;100.00
48352;BME280;34163;49.314;6.752;2023-09-18T11:39:00;98950.97;;;7.22;100.00
48352;BME280;34163;49.314;6.752;2023-09-18T11:41:35;98937.91;;;7.19;100.00
48352;BME280;34163;49.314;6.752;2023-09-18T11:46:38;98932.44;;;7.03;100.00
48352;BME280;34163;49.314;6.752;2023-09-18T11:49:06;98935.13;;;7.01;100.00
48352;BME280;34163;49.314;6.752;2023-09-18T11:51:32;98934.75;;;7.11;100.00
48352;BME280;34163;49.314;6.752;2023-09-18T11:53:57;98924.28;;;7.30;100.00
48352;BME280;34163;49.314;6.752;2023-09-18T11:56:23;98922.03;;;7.41;100.00
48352;BME280;34163;49.314;6.752;2023-09-18T11:58:49;98929.94;;;7.61;100.00
48352;BME280;34163;49.314;6.752;2023-09-18T12:01:15;98928.03;;;7.44;100.00
48352;BME280;34163;49.314;6.752;2023-09-18T12:03:41;98924.41;;;7.26;100.00
48352;BME280;34163;49.314;6.752;2023-09-18T12:06:06;98935.28;;;7.39;100.00
48352;BME280;34163;49.314;6.752;2023-09-18T12:08:33;98941.59;;;7.56;100.00
48352;BME280;34163;49.314;6.752;2023-09-18T12:11:00;98940.22;;;7.68;100.00
48352;BME280;34163;49.314;6.752;2023-09-18T12:13:30;98939.59;;;7.61;100.00
48352;BME280;34163;49.314;6.752;2023-09-18T12:16:02;98923.16;;;7.35;100.00
48352;BME280;34163;49.314;6.752;2023-09-18T12:18:30;98930.41;;;7.30;100.00
48352;BME280;34163;49.314;6.752;2023-09-18T12:20:55;98930.78;;;7.21;100.00
48352;BME280;34163;49.314;6.752;2023-09-18T12:23:24;98913.69;;;7.11;100.00
48352;BME280;34163;49.314;6.752;2023-09-18T12:25:57;98907.69;;;7.07;100.00
48352;BME280;34163;49.314;6.752;2023-09-18T12:28:23;98920.00;;;7.27;100.00
48352;BME280;34163;49.314;6.752;2023-09-18T12:30:50;98927.88;;;7.48;100.00
48352;BME280;34163;49.314;6.752;2023-09-18T12:33:17;98925.22;;;7.68;100.00
48352;BME280;34163;49.314;6.752;2023-09-18T12:35:42;98917.66;;;7.60;100.00
48352;BME280;34163;49.314;6.752;2023-09-18T12:38:15;98920.06;;;7.46;100.00
48352;BME280;34163;49.314;6.752;2023-09-18T12:40:40;98918.81;;;7.34;100.00
48352;BME280;34163;49.314;6.752;2023-09-18T12:43:06;98911.28;;;7.66;100.00
48352;BME280;34163;49.314;6.752;2023-09-18T12:45:32;98903.22;;;7.69;100.00
48352;BME280;34163;49.314;6.752;2023-09-18T12:47:58;98901.38;;;7.90;100.00
48352;BME280;34163;49.314;6.752;2023-09-18T12:50:24;98905.28;;;7.81;100.00
48352;BME280;34163;49.314;6.752;2023-09-18T12:52:50;98908.25;;;7.55;100.00
48352;BME280;34163;49.314;6.752;2023-09-18T12:55:22;98907.97;;;7.61;100.00
48352;BME280;34163;49.314;6.752;2023-09-18T12:57:48;98903.31;;;7.87;100.00
48352;BME280;34163;49.314;6.752;2023-09-18T13:00:15;98915.50;;;7.89;100.00
48352;BME280;34163;49.314;6.752;2023-09-18T13:02:44;98911.59;;;7.98;100.00
48352;BME280;34163;49.314;6.752;2023-09-18T13:05:10;98913.41;;;7.77;100.00
48352;BME280;34163;49.314;6.752;2023-09-18T13:07:43;98906.59;;;7.52;100.00
48352;BME280;34163;49.314;6.752;2023-09-18T13:10:08;98895.38;;;7.68;100.00
48352;BME280;34163;49.314;6.752;2023-09-18T13:12:50;98893.69;;;7.86;100.00
48352;BME280;34163;49.314;6.752;2023-09-18T13:15:27;98886.69;;;8.04;100.00
48352;BME280;34163;49.314;6.752;2023-09-18T13:17:53;98888.75;;;7.78;100.00
48352;BME280;34163;49.314;6.752;2023-09-18T13:20:22;98881.19;;;7.70;100.00
48352;BME280;34163;49.314;6.752;2023-09-18T13:22:52;98879.13;;;7.96;100.00
48352;BME280;34163;49.314;6.752;2023-09-18T13:25:21;98877.00;;;8.04;100.00
48352;BME280;34163;49.314;6.752;2023-09-18T13:27:47;98874.56;;;8.18;100.00
48352;BME280;34163;49.314;6.752;2023-09-18T13:30:13;98867.81;;;7.94;100.00
48352;BME280;34163;49.314;6.752;2023-09-18T13:32:42;98856.47;;;7.73;100.00
48352;BME280;34163;49.314;6.752;2023-09-18T13:35:07;98855.84;;;7.87;100.00
48352;BME280;34163;49.314;6.752;2023-09-18T13:37:33;98869.66;;;8.11;100.00
48352;BME280;34163;49.314;6.752;2023-09-18T13:39:59;98873.47;;;8.23;100.00
48352;BME280;34163;49.314;6.752;2023-09-18T13:42:26;98870.50;;;7.92;100.00
48352;BME280;34163;49.314;6.752;2023-09-18T13:44:52;98867.69;;;7.57;100.00
48352;BME280;34163;49.314;6.752;2023-09-18T13:47:18;98861.22;;;7.45;100.00
48352;BME280;34163;49.314;6.752;2023-09-18T13:49:44;98860.78;;;7.36;100.00
48352;BME280;34163;49.314;6.752;2023-09-18T13:52:11;98854.91;;;7.29;100.00
48352;BME280;34163;49.314;6.752;2023-09-18T13:54:37;98850.63;;;7.26;100.00
48352;BME280;34163;49.314;6.752;2023-09-18T13:57:02;98853.47;;;7.22;100.00
48352;BME280;34163;49.314;6.752;2023-09-18T13:59:30;98843.19;;;7.16;100.00
48352;BME280;34163;49.314;6.752;2023-09-18T14:01:55;98846.91;;;7.12;100.00
48352;BME280;34163;49.314;6.752;2023-09-18T14:04:22;98834.06;;;7.04;100.00
48352;BME280;34163;49.314;6.752;2023-09-18T14:06:47;98833.81;;;7.10;100.00
48352;BME280;34163;49.314;6.752;2023-09-18T14:09:12;98830.81;;;6.97;100.00
48352;BME280;34163;49.314;6.752;2023-09-18T14:11:38;98831.44;;;7.04;100.00
48352;BME280;34163;49.314;6.752;2023-09-18T14:14:03;98829.41;;;7.30;100.00
48352;BME280;34163;49.314;6.752;2023-09-18T14:16:28;98827.44;;;7.54;100.00
48352;BME280;34163;49.314;6.752;2023-09-18T14:18:54;98812.41;;;7.56;100.00
48352;BME280;34163;49.314;6.752;2023-09-18T14:21:19;98813.50;;;7.71;100.00
48352;BME280;34163;49.314;6.752;2023-09-18T14:23:45;98808.44;;;7.47;100.00
48352;BME280;34163;49.314;6.752;2023-09-18T14:26:10;98803.78;;;7.33;100.00
48352;BME280;34163;49.314;6.752;2023-09-18T14:28:35;98797.16;;;7.43;100.00
48352;BME280;34163;49.314;6.752;2023-09-18T14:31:02;98791.97;;;7.61;100.00
48352;BME280;34163;49.314;6.752;2023-09-18T14:33:31;98790.97;;;7.82;100.00
48352;BME280;34163;49.314;6.752;2023-09-18T14:35:56;98787.13;;;7.90;100.00
48352;BME280;34163;49.314;6.752;2023-09-18T14:38:22;98793.41;;;7.68;100.00
48352;BME280;34163;49.314;6.752;2023-09-18T14:40:47;98786.53;;;7.45;100.00
48352;BME280;34163;49.314;6.752;2023-09-18T14:43:13;98781.84;;;7.33;100.00
48352;BME280;34163;49.314;6.752;2023-09-18T14:45:38;98789.69;;;7.34;100.00
48352;BME280;34163;49.314;6.752;2023-09-18T14:48:05;98790.41;;;7.57;100.00
48352;BME280;34163;49.314;6.752;2023-09-18T14:50:30;98799.09;;;7.78;100.00
48352;BME280;34163;49.314;6.752;2023-09-18T14:52:55;98803.22;;;7.84;100.00
48352;BME280;34163;49.314;6.752;2023-09-18T14:55:20;98813.63;;;7.87;100.00
48352;BME280;34163;49.314;6.752;2023-09-18T14:57:46;98812.63;;;7.51;100.00
48352;BME280;34163;49.314;6.752;2023-09-18T15:00:11;98794.63;;;7.42;100.00
48352;BME280;34163;49.314;6.752;2023-09-18T15:02:37;98801.28;;;7.30;100.00
48352;BME280;34163;49.314;6.752;2023-09-18T15:05:03;98802.75;;;7.17;100.00
48352;BME280;34163;49.314;6.752;2023-09-18T15:07:32;98792.09;;;7.20;100.00
48352;BME280;34163;49.314;6.752;2023-09-18T15:09:57;98796.03;;;7.09;100.00
48352;BME280;34163;49.314;6.752;2023-09-18T15:12:23;98786.72;;;7.02;100.00
48352;BME280;34163;49.314;6.752;2023-09-18T15:14:49;98785.63;;;7.06;100.00
48352;BME280;34163;49.314;6.752;2023-09-18T15:17:17;98785.25;;;7.35;100.00
48352;BME280;34163;49.314;6.752;2023-09-18T15:19:43;98790.69;;;7.51;100.00
48352;BME280;34163;49.314;6.752;2023-09-18T15:22:13;98795.69;;;7.57;100.00
48352;BME280;34163;49.314;6.752;2023-09-18T15:24:38;98802.41;;;7.43;100.00
48352;BME280;34163;49.314;6.752;2023-09-18T15:27:04;98810.25;;;7.26;100.00
48352;BME280;34163;49.314;6.752;2023-09-18T15:29:29;98817.75;;;7.15;100.00
48352;BME280;34163;49.314;6.752;2023-09-18T15:31:56;98838.19;;;7.09;100.00
48352;BME280;34163;49.314;6.752;2023-09-18T15:34:22;98848.97;;;7.24;100.00
48352;BME280;34163;49.314;6.752;2023-09-18T15:36:48;98859.84;;;7.16;100.00
48352;BME280;34163;49.314;6.752;2023-09-18T15:39:14;98866.38;;;7.07;100.00
48352;BME280;34163;49.314;6.752;2023-09-18T15:41:39;98862.41;;;7.18;100.00
48352;BME280;34163;49.314;6.752;2023-09-18T15:44:05;98856.66;;;7.49;100.00
48352;BME280;34163;49.314;6.752;2023-09-18T15:46:31;98841.28;;;7.59;100.00
48352;BME280;34163;49.314;6.752;2023-09-18T15:48:57;98850.41;;;7.71;100.00
48352;BME280;34163;49.314;6.752;2023-09-18T15:51:22;98851.81;;;7.59;100.00
48352;BME280;34163;49.314;6.752;2023-09-18T15:53:47;98857.72;;;7.64;100.00
48352;BME280;34163;49.314;6.752;2023-09-18T15:56:13;98867.03;;;7.73;100.00
48352;BME280;34163;49.314;6.752;2023-09-18T15:58:38;98869.81;;;7.89;100.00
48352;BME280;34163;49.314;6.752;2023-09-18T16:01:04;98865.38;;;7.89;100.00
48352;BME280;34163;49.314;6.752;2023-09-18T16:03:29;98868.41;;;7.61;100.00
48352;BME280;34163;49.314;6.752;2023-09-18T16:05:55;98872.94;;;7.38;100.00
48352;BME280;34163;49.314;6.752;2023-09-18T16:08:20;98871.75;;;7.45;100.00
48352;BME280;34163;49.314;6.752;2023-09-18T16:10:45;98870.91;;;7.64;100.00
48352;BME280;34163;49.314;6.752;2023-09-18T16:13:11;98873.78;;;7.78;100.00
48352;BME280;34163;49.314;6.752;2023-09-18T16:15:36;98871.53;;;7.90;100.00
48352;BME280;34163;49.314;6.752;2023-09-18T16:18:01;98861.94;;;7.68;100.00
48352;BME280;34163;49.314;6.752;2023-09-18T16:20:27;98858.78;;;7.41;100.00
48352;BME280;34163;49.314;6.752;2023-09-18T16:22:52;98853.19;;;7.28;100.00
48352;BME280;34163;49.314;6.752;2023-09-18T16:25:17;98855.19;;;7.23;100.00
48352;BME280;34163;49.314;6.752;2023-09-18T16:27:42;98849.59;;;7.10;100.00
48352;BME280;34163;49.314;6.752;2023-09-18T16:30:08;98848.47;;;7.16;100.00
48352;BME280;34163;49.314;6.752;2023-09-18T16:32:35;98843.97;;;6.97;100.00
48352;BME280;34163;49.314;6.752;2023-09-18T16:35:01;98840.63;;;6.94;100.00
48352;BME280;34163;49.314;6.752;2023-09-18T16:37:26;98850.06;;;6.99;100.00
48352;BME280;34163;49.314;6.752;2023-09-18T16:39:52;98853.69;;;6.97;100.00
48352;BME280;34163;49.314;6.752;2023-09-18T16:42:17;98853.69;;;6.97;100.00
48352;BME280;34163;49.314;6.752;2023-09-18T16:44:44;98853.09;;;6.90;100.00
48352;BME280;34163;49.314;6.752;2023-09-18T16:47:13;98851.22;;;6.92;100.00
48352;BME280;34163;49.314;6.752;2023-09-18T16:49:38;98851.50;;;6.86;100.00
48352;BME280;34163;49.314;6.752;2023-09-18T16:52:04;98839.53;;;6.79;100.00
48352;BME280;34163;49.314;6.752;2023-09-18T16:54:29;98836.81;;;6.80;100.00
48352;BME280;34163;49.314;6.752;2023-09-18T16:56:56;98838.53;;;6.81;100.00
48352;BME280;34163;49.314;6.752;2023-09-18T16:59:21;98851.03;;;6.76;100.00
48352;BME280;34163;49.314;6.752;2023-09-18T17:05:14;98849.34;;;6.75;100.00
48352;BME280;34163;49.314;6.752;2023-09-18T17:07:40;98840.56;;;6.75;100.00
48352;BME280;34163;49.314;6.752;2023-09-18T17:10:07;98846.91;;;6.70;100.00
48352;BME280;34163;49.314;6.752;2023-09-18T17:12:33;98841.44;;;6.75;100.00
48352;BME280;34163;49.314;6.752;2023-09-18T17:15:02;98851.03;;;6.76;100.00
48352;BME280;34163;49.314;6.752;2023-09-18T17:17:28;98852.88;;;6.74;100.00
48352;BME280;34163;49.314;6.752;2023-09-18T17:19:53;98850.25;;;6.74;100.00
48352;BME280;34163;49.314;6.752;2023-09-18T17:22:18;98853.72;;;6.75;100.00
48352;BME280;34163;49.314;6.752;2023-09-18T17:24:44;98852.22;;;6.69;100.00
48352;BME280;34163;49.314;6.752;2023-09-18T17:27:10;98848.47;;;6.75;100.00
48352;BME280;34163;49.314;6.752;2023-09-18T17:29:35;98851.28;;;6.70;100.00
48352;BME280;34163;49.314;6.752;2023-09-18T17:32:00;98855.56;;;6.72;100.00
48352;BME280;34163;49.314;6.752;2023-09-18T17:34:26;98852.03;;;6.73;100.00
48352;BME280;34163;49.314;6.752;2023-09-18T17:36:53;98851.97;;;6.75;100.00
48352;BME280;34163;49.314;6.752;2023-09-18T17:39:21;98855.69;;;6.69;100.00
48352;BME280;34163;49.314;6.752;2023-09-18T17:41:48;98859.94;;;6.73;100.00
48352;BME280;34163;49.314;6.752;2023-09-18T17:44:13;98859.53;;;6.62;100.00
48352;BME280;34163;49.314;6.752;2023-09-18T17:46:40;98855.75;;;6.68;100.00
48352;BME280;34163;49.314;6.752;2023-09-18T17:49:06;98852.53;;;6.61;100.00
48352;BME280;34163;49.314;6.752;2023-09-18T17:51:33;98852.41;;;6.64;100.00
48352;BME280;34163;49.314;6.752;2023-09-18T17:53:59;98847.41;;;6.58;100.00
48352;BME280;34163;49.314;6.752;2023-09-18T17:56:24;98841.09;;;6.62;100.00
48352;BME280;34163;49.314;6.752;2023-09-18T17:58:50;98857.00;;;6.59;100.00
48352;BME280;34163;49.314;6.752;2023-09-18T18:01:15;98855.34;;;6.57;100.00
48352;BME280;34163;49.314;6.752;2023-09-18T18:03:42;98857.19;;;6.54;100.00
48352;BME280;34163;49.314;6.752;2023-09-18T18:06:08;98856.31;;;6.54;100.00
48352;BME280;34163;49.314;6.752;2023-09-18T18:11:43;98856.44;;;6.51;100.00
48352;BME280;34163;49.314;6.752;2023-09-18T18:14:09;98858.97;;;6.54;100.00
48352;BME280;34163;49.314;6.752;2023-09-18T18:16:34;98857.31;;;6.51;100.00
48352;BME280;34163;49.314;6.752;2023-09-18T18:19:00;98850.03;;;6.58;100.00
48352;BME280;34163;49.314;6.752;2023-09-18T18:21:28;98864.28;;;6.52;100.00
48352;BME280;34163;49.314;6.752;2023-09-18T18:24:01;98851.19;;;6.51;100.00
48352;BME280;34163;49.314;6.752;2023-09-18T18:26:28;98854.25;;;6.62;100.00
48352;BME280;34163;49.314;6.752;2023-09-18T18:28:54;98859.84;;;6.54;100.00
48352;BME280;34163;49.314;6.752;2023-09-18T18:31:22;98861.72;;;6.51;100.00
48352;BME280;34163;49.314;6.752;2023-09-18T18:33:47;98866.84;;;6.54;100.00
48352;BME280;34163;49.314;6.752;2023-09-18T18:36:14;98870.53;;;6.50;100.00
48352;BME280;34163;49.314;6.752;2023-09-18T18:38:39;98870.53;;;6.50;100.00
48352;BME280;34163;49.314;6.752;2023-09-18T18:41:05;98871.56;;;6.46;100.00
48352;BME280;34163;49.314;6.752;2023-09-18T18:43:31;98884.63;;;6.49;100.00
48352;BME280;34163;49.314;6.752;2023-09-18T18:45:56;98900.53;;;6.46;100.00
48352;BME280;34163;49.314;6.752;2023-09-18T18:48:26;98897.09;;;6.44;100.00
48352;BME280;34163;49.314;6.752;2023-09-18T18:50:51;98906.72;;;6.45;100.00
48352;BME280;34163;49.314;6.752;2023-09-18T18:53:17;98903.03;;;6.49;100.00
48352;BME280;34163;49.314;6.752;2023-09-18T18:55:44;98903.16;;;6.46;100.00
48352;BME280;34163;49.314;6.752;2023-09-18T18:58:10;98907.50;;;6.47;100.00
48352;BME280;34163;49.314;6.752;2023-09-18T19:00:35;98911.16;;;6.43;100.00
48352;BME280;34163;49.314;6.752;2023-09-18T19:03:01;98913.25;;;6.34;100.00
48352;BME280;34163;49.314;6.752;2023-09-18T19:05:29;98915.22;;;6.29;100.00
48352;BME280;34163;49.314;6.752;2023-09-18T19:07:55;98918.41;;;6.38;100.00
48352;BME280;34163;49.314;6.752;2023-09-18T19:10:21;98926.84;;;6.46;100.00
48352;BME280;34163;49.314;6.752;2023-09-18T19:12:46;98934.91;;;6.41;100.00
48352;BME280;34163;49.314;6.752;2023-09-18T19:15:11;98947.34;;;6.38;100.00
48352;BME280;34163;49.314;6.752;2023-09-18T19:17:37;98948.13;;;6.40;100.00
48352;BME280;34163;49.314;6.752;2023-09-18T19:20:02;98949.97;;;6.38;100.00
48352;BME280;34163;49.314;6.752;2023-09-18T19:22:29;98947.22;;;6.41;100.00
48352;BME280;34163;49.314;6.752;2023-09-18T19:24:54;98953.41;;;6.40;100.00
48352;BME280;34163;49.314;6.752;2023-09-18T19:27:20;98947.47;;;6.34;100.00
48352;BME280;34163;49.314;6.752;2023-09-18T19:29:45;98951.81;;;6.35;100.00
48352;BME280;34163;49.314;6.752;2023-09-18T19:32:10;98959.03;;;6.30;100.00
48352;BME280;34163;49.314;6.752;2023-09-18T19:34:36;98957.44;;;6.26;100.00
48352;BME280;34163;49.314;6.752;2023-09-18T19:37:02;98964.53;;;6.24;100.00
48352;BME280;34163;49.314;6.752;2023-09-18T19:39:27;98962.81;;;6.23;100.00
48352;BME280;34163;49.314;6.752;2023-09-18T19:41:53;98960.78;;;6.30;100.00
48352;BME280;34163;49.314;6.752;2023-09-18T19:44:22;98968.06;;;6.23;100.00
48352;BME280;34163;49.314;6.752;2023-09-18T19:46:47;98969.69;;;6.27;100.00
48352;BME280;34163;49.314;6.752;2023-09-18T19:49:12;98971.59;;;6.22;100.00
48352;BME280;34163;49.314;6.752;2023-09-18T19:51:37;98968.19;;;6.20;100.00
48352;BME280;34163;49.314;6.752;2023-09-18T19:54:03;98975.00;;;6.26;100.00
48352;BME280;34163;49.314;6.752;2023-09-18T19:56:28;98978.59;;;6.23;100.00
48352;BME280;34163;49.314;6.752;2023-09-18T19:58:54;98988.28;;;6.23;100.00
48352;BME280;34163;49.314;6.752;2023-09-18T20:01:19;98989.22;;;6.20;100.00
48352;BME280;34163;49.314;6.752;2023-09-18T20:03:44;98986.44;;;6.25;100.00
48352;BME280;34163;49.314;6.752;2023-09-18T20:06:10;98993.66;;;6.20;100.00
48352;BME280;34163;49.314;6.752;2023-09-18T20:08:35;99000.44;;;6.25;100.00
48352;BME280;34163;49.314;6.752;2023-09-18T20:11:00;99000.69;;;6.19;100.00
48352;BME280;34163;49.314;6.752;2023-09-18T20:13:28;99005.06;;;6.18;100.00
48352;BME280;34163;49.314;6.752;2023-09-18T20:15:54;99002.28;;;6.23;100.00
48352;BME280;34163;49.314;6.752;2023-09-18T20:18:20;98999.75;;;6.20;100.00
48352;BME280;34163;49.314;6.752;2023-09-18T20:20:45;99000.75;;;6.17;100.00
48352;BME280;34163;49.314;6.752;2023-09-18T20:23:10;99006.91;;;6.16;100.00
48352;BME280;34163;49.314;6.752;2023-09-18T20:25:35;99004.16;;;6.20;100.00
48352;BME280;34163;49.314;6.752;2023-09-18T20:28:01;99009.72;;;6.12;100.00
48352;BME280;34163;49.314;6.752;2023-09-18T20:30:26;99021.66;;;6.21;100.00
48352;BME280;34163;49.314;6.752;2023-09-18T20:32:52;99012.34;;;6.12;100.00
48352;BME280;34163;49.314;6.752;2023-09-18T20:35:17;99012.34;;;6.12;100.00
48352;BME280;34163;49.314;6.752;2023-09-18T20:37:42;99018.28;;;6.17;100.00
48352;BME280;34163;49.314;6.752;2023-09-18T20:40:07;99012.97;;;6.18;100.00
48352;BME280;34163;49.314;6.752;2023-09-18T20:42:33;99018.09;;;6.22;100.00
48352;BME280;34163;49.314;6.752;2023-09-18T20:44:58;99018.38;;;6.14;100.00
48352;BME280;34163;49.314;6.752;2023-09-18T20:47:24;99020.97;;;6.15;100.00
48352;BME280;34163;49.314;6.752;2023-09-18T20:49:51;99021.94;;;6.13;100.00
48352;BME280;34163;49.314;6.752;2023-09-18T20:52:17;99024.47;;;6.16;100.00
48352;BME280;34163;49.314;6.752;2023-09-18T20:54:42;99017.59;;;6.12;100.00
48352;BME280;34163;49.314;6.752;2023-09-18T20:57:09;99015.66;;;6.17;100.00
48352;BME280;34163;49.314;6.752;2023-09-18T20:59:34;99027.84;;;6.20;100.00
48352;BME280;34163;49.314;6.752;2023-09-18T21:01:59;99031.44;;;6.17;100.00
48352;BME280;34163;49.314;6.752;2023-09-18T21:04:24;99032.69;;;6.07;100.00
48352;BME280;34163;49.314;6.752;2023-09-18T21:06:50;99035.84;;;6.16;100.00
48352;BME280;34163;49.314;6.752;2023-09-18T21:09:16;99051.22;;;6.04;100.00
48352;BME280;34163;49.314;6.752;2023-09-18T21:11:41;99061.94;;;5.97;100.00
48352;BME280;34163;49.314;6.752;2023-09-18T21:14:07;99070.81;;;5.93;100.00